createdAt,value
2019-04-19T00:00:20.187Z,16.6
2019-04-19T00:01:02.604Z,16.6
2019-04-19T00:01:47.363Z,16.62
2019-04-19T00:02:23.718Z,16.54
2019-04-19T00:03:00.756Z,16.55
2019-04-19T00:03:42.305Z,16.57
2019-04-19T00:04:24.330Z,16.54
2019-04-19T00:05:03.417Z,16.52
2019-04-19T00:05:44.515Z,16.52
2019-04-19T00:06:26.521Z,16.59
2019-04-19T00:07:11.035Z,16.59
2019-04-19T00:07:49.074Z,16.59
2019-04-19T00:08:35.505Z,16.51
2019-04-19T00:09:20.082Z,16.51
2019-04-19T00:09:54.279Z,16.5
2019-04-19T00:10:36.005Z,16.52
2019-04-19T00:11:15.199Z,16.67
2019-04-19T00:12:01.711Z,16.52
2019-04-19T00:12:37.196Z,16.55
2019-04-19T00:13:09.692Z,16.55
2019-04-19T00:13:49.593Z,16.6
2019-04-19T00:14:29.924Z,16.65
2019-04-19T00:15:10.325Z,16.57
2019-04-19T00:15:51.821Z,16.62
2019-04-19T00:16:32.006Z,16.66
2019-04-19T00:17:13.568Z,16.52
2019-04-19T00:17:58.350Z,16.54
2019-04-19T00:18:32.744Z,16.66
2019-04-19T00:19:29.667Z,16.66
2019-04-19T00:20:16.188Z,16.69
2019-04-19T00:20:55.452Z,16.6
2019-04-19T00:21:27.071Z,16.6
2019-04-19T00:22:13.077Z,16.67
2019-04-19T00:22:52.208Z,16.63
2019-04-19T00:23:24.334Z,16.65
2019-04-19T00:23:56.783Z,16.55
2019-04-19T00:24:36.048Z,16.66
2019-04-19T00:25:17.573Z,16.63
2019-04-19T00:25:57.745Z,16.5
2019-04-19T00:26:37.944Z,16.55
2019-04-19T00:27:18.004Z,16.5
2019-04-19T00:28:00.842Z,16.5
2019-04-19T00:28:44.862Z,16.5
2019-04-19T00:29:25.616Z,16.45
2019-04-19T00:30:05.131Z,16.55
2019-04-19T00:30:49.374Z,16.48
2019-04-19T00:31:30.733Z,16.54
2019-04-19T00:32:16.586Z,16.57
2019-04-19T00:32:55.847Z,16.51
2019-04-19T00:33:28.164Z,16.47
2019-04-19T00:34:02.628Z,16.51
2019-04-19T00:34:42.269Z,16.41
2019-04-19T00:35:22.387Z,16.55
2019-04-19T00:36:02.933Z,16.48
2019-04-19T00:36:43.461Z,16.52
2019-04-19T00:37:24.485Z,16.52
2019-04-19T00:38:08.176Z,16.59
2019-04-19T00:38:57.066Z,16.51
2019-04-19T00:39:39.752Z,16.57
2019-04-19T00:40:19.779Z,16.52
2019-04-19T00:41:02.983Z,16.57
2019-04-19T00:41:40.702Z,16.59
2019-04-19T00:42:24.554Z,16.65
2019-04-19T00:43:00.449Z,16.66
2019-04-19T00:43:44.321Z,16.62
2019-04-19T00:44:27.871Z,16.67
2019-04-19T00:45:07.363Z,16.62
2019-04-19T00:45:41.559Z,16.63
2019-04-19T00:46:24.412Z,16.55
2019-04-19T00:47:06.419Z,16.57
2019-04-19T00:47:42.416Z,16.6
2019-04-19T00:48:29.483Z,16.63
2019-04-19T00:49:02.503Z,16.62
2019-04-19T00:49:36.986Z,16.54
2019-04-19T00:50:21.260Z,16.63
2019-04-19T00:51:03.955Z,16.54
2019-04-19T00:51:42.941Z,16.6
2019-04-19T00:52:31.375Z,16.62
2019-04-19T00:53:07.269Z,16.62
2019-04-19T00:53:41.784Z,16.65
2019-04-19T00:54:22.721Z,16.69
2019-04-19T00:55:01.048Z,16.67
2019-04-19T00:55:43.937Z,16.66
2019-04-19T00:56:20.703Z,16.67
2019-04-19T00:57:01.423Z,16.6
2019-04-19T00:57:41.861Z,16.65
2019-04-19T00:58:21.633Z,16.67
2019-04-19T00:59:00.627Z,16.67
2019-04-19T00:59:42.356Z,16.63
2019-04-19T01:00:22.576Z,16.62
2019-04-19T01:01:05.810Z,16.62
2019-04-19T01:01:37.928Z,16.62
2019-04-19T01:02:20.050Z,16.54
2019-04-19T01:02:59.836Z,16.65
2019-04-19T01:03:43.764Z,16.65
2019-04-19T01:04:24.686Z,16.59
2019-04-19T01:05:04.400Z,16.59
2019-04-19T01:05:46.959Z,16.62
2019-04-19T01:06:22.935Z,16.6
2019-04-19T01:07:04.074Z,16.66
2019-04-19T01:07:42.429Z,16.57
2019-04-19T01:08:24.739Z,16.65
2019-04-19T01:09:18.955Z,16.65
2019-04-19T01:09:52.913Z,16.69
2019-04-19T01:10:36.752Z,16.78
2019-04-19T01:11:17.870Z,16.77
2019-04-19T01:11:58.938Z,16.69
2019-04-19T01:12:41.372Z,16.73
2019-04-19T01:13:15.476Z,16.65
2019-04-19T01:14:00.793Z,16.69
2019-04-19T01:14:36.080Z,16.67
2019-04-19T01:15:18.592Z,16.67
2019-04-19T01:15:55.286Z,16.67
2019-04-19T01:16:45.008Z,16.65
2019-04-19T01:17:21.479Z,16.72
2019-04-19T01:18:04.205Z,16.7
2019-04-19T01:18:37.705Z,16.67
2019-04-19T01:19:12.390Z,16.69
2019-04-19T01:19:53.507Z,16.73
2019-04-19T01:20:29.401Z,16.78
2019-04-19T01:21:11.223Z,16.81
2019-04-19T01:21:51.167Z,16.78
2019-04-19T01:22:31.754Z,16.7
2019-04-19T01:23:14.754Z,16.69
2019-04-19T01:23:54.470Z,16.81
2019-04-19T01:24:37.203Z,16.77
2019-04-19T01:25:17.725Z,16.78
2019-04-19T01:25:58.993Z,16.77
2019-04-19T01:26:37.044Z,16.78
2019-04-19T01:27:19.247Z,16.82
2019-04-19T01:27:57.493Z,16.82
2019-04-19T01:28:35.194Z,16.85
2019-04-19T01:29:17.126Z,16.8
2019-04-19T01:29:57.736Z,16.85
2019-04-19T01:30:39.596Z,16.82
2019-04-19T01:31:21.143Z,16.8
2019-04-19T01:32:03.066Z,16.77
2019-04-19T01:32:42.901Z,16.67
2019-04-19T01:33:18.830Z,16.73
2019-04-19T01:33:57.334Z,16.65
2019-04-19T01:34:37.726Z,16.65
2019-04-19T01:35:19.728Z,16.63
2019-04-19T01:35:58.789Z,16.63
2019-04-19T01:36:42.258Z,16.66
2019-04-19T01:37:22.217Z,16.65
2019-04-19T01:38:03.912Z,16.65
2019-04-19T01:38:45.299Z,16.67
2019-04-19T01:39:31.990Z,16.75
2019-04-19T01:40:16.584Z,16.72
2019-04-19T01:40:58.835Z,16.72
2019-04-19T01:41:36.965Z,16.72
2019-04-19T01:42:20.750Z,16.77
2019-04-19T01:42:57.341Z,16.72
2019-04-19T01:43:38.299Z,16.73
2019-04-19T01:44:23.537Z,16.73
2019-04-19T01:44:59.901Z,16.7
2019-04-19T01:45:41.661Z,16.78
2019-04-19T01:46:17.307Z,16.72
2019-04-19T01:46:59.265Z,16.77
2019-04-19T01:47:41.312Z,16.78
2019-04-19T01:48:24.437Z,16.8
2019-04-19T01:48:56.705Z,16.85
2019-04-19T01:49:42.726Z,16.82
2019-04-19T01:50:16.967Z,16.81
2019-04-19T01:51:01.938Z,16.77
2019-04-19T01:51:47.679Z,16.67
2019-04-19T01:52:36.289Z,16.65
2019-04-19T01:53:08.866Z,16.67
2019-04-19T01:53:44.316Z,16.65
2019-04-19T01:54:24.645Z,16.66
2019-04-19T01:55:01.371Z,16.69
2019-04-19T01:55:35.072Z,16.62
2019-04-19T01:56:14.885Z,16.62
2019-04-19T01:56:57.059Z,16.54
2019-04-19T01:57:32.388Z,16.55
2019-04-19T01:58:15.903Z,16.55
2019-04-19T01:58:57.186Z,16.5
2019-04-19T01:59:39.729Z,16.45
2019-04-19T02:00:24.134Z,16.52
2019-04-19T02:00:57.276Z,16.47
2019-04-19T02:01:35.011Z,16.55
2019-04-19T02:02:17.797Z,16.51
2019-04-19T02:02:59.824Z,16.51
2019-04-19T02:03:38.471Z,16.45
2019-04-19T02:04:21.351Z,16.54
2019-04-19T02:04:59.729Z,16.45
2019-04-19T02:05:43.624Z,16.32
2019-04-19T02:06:18.730Z,16.33
2019-04-19T02:06:58.394Z,16.29
2019-04-19T02:07:38.971Z,16.25
2019-04-19T02:08:19.139Z,16.23
2019-04-19T02:09:00.698Z,16.1
2019-04-19T02:09:54.065Z,16.07
2019-04-19T02:10:35.108Z,16.13
2019-04-19T02:11:07.037Z,16.07
2019-04-19T02:11:49.066Z,16.04
2019-04-19T02:12:33.134Z,16.06
2019-04-19T02:13:12.011Z,15.96
2019-04-19T02:13:50.682Z,15.92
2019-04-19T02:14:25.992Z,15.95
2019-04-19T02:15:07.771Z,15.85
2019-04-19T02:15:47.160Z,15.86
2019-04-19T02:16:26.177Z,15.89
2019-04-19T02:17:08.164Z,15.96
2019-04-19T02:17:48.122Z,15.85
2019-04-19T02:18:27.931Z,15.84
2019-04-19T02:19:08.591Z,15.85
2019-04-19T02:19:51.886Z,15.84
2019-04-19T02:20:26.692Z,15.77
2019-04-19T02:21:06.743Z,15.77
2019-04-19T02:21:48.686Z,15.76
2019-04-19T02:22:31.548Z,15.74
2019-04-19T02:23:10.856Z,15.71
2019-04-19T02:23:52.594Z,15.64
2019-04-19T02:24:35.099Z,15.7
2019-04-19T02:25:15.885Z,15.66
2019-04-19T02:25:57.746Z,15.64
2019-04-19T02:26:32.149Z,15.64
2019-04-19T02:27:15.010Z,15.56
2019-04-19T02:27:53.038Z,15.58
2019-04-19T02:28:36.439Z,15.58
2019-04-19T02:29:16.682Z,15.59
2019-04-19T02:30:00.461Z,15.64
2019-04-19T02:30:47.743Z,15.56
2019-04-19T02:31:35.423Z,15.59
2019-04-19T02:32:17.118Z,15.55
2019-04-19T02:32:50.338Z,15.6
2019-04-19T02:33:37.443Z,15.64
2019-04-19T02:34:28.639Z,15.66
2019-04-19T02:35:41.750Z,15.56
2019-04-19T02:36:24.668Z,15.59
2019-04-19T02:37:07.737Z,15.67
2019-04-19T02:37:43.429Z,15.59
2019-04-19T02:38:28.592Z,15.56
2019-04-19T02:39:10.526Z,15.59
2019-04-19T02:40:44.831Z,15.49
2019-04-19T02:41:10.332Z,15.59
2019-04-19T02:41:48.850Z,15.55
2019-04-19T02:42:30.233Z,15.52
2019-04-19T02:43:06.318Z,15.43
2019-04-19T02:44:23.498Z,15.53
2019-04-19T02:46:32.262Z,15.41
2019-04-19T02:48:00.327Z,15.35
2019-04-19T02:48:35.401Z,15.31
2019-04-19T02:49:19.830Z,15.34
2019-04-19T02:50:42.753Z,15.35
2019-04-19T02:51:51.938Z,15.2
2019-04-19T02:53:15.624Z,15.2
2019-04-19T02:53:53.689Z,15.2
2019-04-19T02:54:40.155Z,15.16
2019-04-19T02:55:13.566Z,15.16
2019-04-19T02:56:02.184Z,15.15
2019-04-19T02:56:51.619Z,15.15
2019-04-19T02:57:54.515Z,15.11
2019-04-19T02:58:39.466Z,15.04
2019-04-19T02:59:29.246Z,15.11
2019-04-19T03:00:03.356Z,15.03
2019-04-19T03:00:41.670Z,15.07
2019-04-19T03:01:26.449Z,15.01
2019-04-19T03:02:03.998Z,15.05
2019-04-19T03:02:46.860Z,14.98
2019-04-19T03:03:19.680Z,14.94
2019-04-19T03:04:13.745Z,14.95
2019-04-19T03:04:52.741Z,14.97
2019-04-19T03:05:31.535Z,14.94
2019-04-19T03:05:55.646Z,14.82
2019-04-19T03:06:29.177Z,14.78
2019-04-19T03:07:01.001Z,14.78
2019-04-19T03:07:38.513Z,14.78
2019-04-19T03:08:18.584Z,14.69
2019-04-19T03:08:58.596Z,14.67
2019-04-19T03:09:40.973Z,14.66
2019-04-19T03:10:22.586Z,14.64
2019-04-19T03:11:08.916Z,14.6
2019-04-19T03:11:55.903Z,14.67
2019-04-19T03:12:53.744Z,14.59
2019-04-19T03:13:16.967Z,14.61
2019-04-19T03:13:56.947Z,14.49
2019-04-19T03:14:38.719Z,14.42
2019-04-19T03:15:13.664Z,14.44
2019-04-19T03:15:56.982Z,14.44
2019-04-19T03:16:43.323Z,14.34
2019-04-19T03:17:23.058Z,14.39
2019-04-19T03:18:00.371Z,14.27
2019-04-19T03:18:51.643Z,14.26
2019-04-19T03:19:13.175Z,14.26
2019-04-19T03:19:59.655Z,14.29
2019-04-19T03:20:38.276Z,14.19
2019-04-19T03:21:24.938Z,14.21
2019-04-19T03:22:00.261Z,14.12
2019-04-19T03:22:42.017Z,14.16
2019-04-19T03:23:21.684Z,14.16
2019-04-19T03:24:04.665Z,14.09
2019-04-19T03:24:46.445Z,14.06
2019-04-19T03:25:22.667Z,14.06
2019-04-19T03:25:58.823Z,14.01
2019-04-19T03:26:40.997Z,14.02
2019-04-19T03:27:17.733Z,13.98
2019-04-19T03:27:59.168Z,13.94
2019-04-19T03:28:40.383Z,13.94
2019-04-19T03:29:19.714Z,13.88
2019-04-19T03:30:05.239Z,13.86
2019-04-19T03:31:00.844Z,13.94
2019-04-19T03:31:40.635Z,13.84
2019-04-19T03:32:44.485Z,13.88
2019-04-19T03:33:41.616Z,13.75
2019-04-19T03:34:30.086Z,13.83
2019-04-19T03:35:03.520Z,13.73
2019-04-19T03:35:30.775Z,13.75
2019-04-19T03:36:50.235Z,13.71
2019-04-19T03:37:30.422Z,13.69
2019-04-19T03:38:09.954Z,13.65
2019-04-19T03:38:46.827Z,13.71
2019-04-19T03:39:36.385Z,13.61
2019-04-19T03:40:22.949Z,13.61
2019-04-19T03:40:55.761Z,13.63
2019-04-19T03:41:46.380Z,13.63
2019-04-19T03:42:19.898Z,13.61
2019-04-19T03:42:54.021Z,13.62
2019-04-19T03:43:51.629Z,13.63
2019-04-19T03:44:15.500Z,13.55
2019-04-19T03:45:01.358Z,13.5
2019-04-19T03:45:39.434Z,13.48
2019-04-19T03:46:15.807Z,13.5
2019-04-19T03:47:03.854Z,13.48
2019-04-19T03:47:44.170Z,13.46
2019-04-19T03:48:20.773Z,13.47
2019-04-19T03:48:55.954Z,13.46
2019-04-19T03:49:38.429Z,13.47
2019-04-19T03:50:19.707Z,13.43
2019-04-19T03:51:04.082Z,13.46
2019-04-19T03:51:47.377Z,13.36
2019-04-19T03:52:25.765Z,13.41
2019-04-19T03:53:00.336Z,13.29
2019-04-19T03:54:23.175Z,13.25
2019-04-19T03:55:01.031Z,13.32
2019-04-19T03:55:46.472Z,13.28
2019-04-19T03:56:26.169Z,13.22
2019-04-19T03:57:04.101Z,13.17
2019-04-19T03:57:39.652Z,13.24
2019-04-19T03:58:12.227Z,13.22
2019-04-19T03:58:52.430Z,13.19
2019-04-19T03:59:31.044Z,13.22
2019-04-19T04:00:11.092Z,13.19
2019-04-19T04:00:51.911Z,13.13
2019-04-19T04:01:37.490Z,13.14
2019-04-19T04:02:15.304Z,13.12
2019-04-19T04:02:53.093Z,13.09
2019-04-19T04:03:37.516Z,13.04
2019-04-19T04:04:18.824Z,13.06
2019-04-19T04:04:59.341Z,13.03
2019-04-19T04:05:38.530Z,12.96
2019-04-19T04:06:21.672Z,12.96
2019-04-19T04:06:54.860Z,12.91
2019-04-19T04:07:35.535Z,12.92
2019-04-19T04:08:19.552Z,12.95
2019-04-19T04:09:00.337Z,12.95
2019-04-19T04:09:42.308Z,12.95
2019-04-19T04:10:23.706Z,12.98
2019-04-19T04:11:00.055Z,12.94
2019-04-19T04:11:49.337Z,12.87
2019-04-19T04:12:32.153Z,12.84
2019-04-19T04:13:13.943Z,12.87
2019-04-19T04:13:47.821Z,12.79
2019-04-19T04:14:29.445Z,12.79
2019-04-19T04:15:10.187Z,12.85
2019-04-19T04:15:53.731Z,12.77
2019-04-19T04:16:28.946Z,12.8
2019-04-19T04:17:01.863Z,12.79
2019-04-19T04:17:41.508Z,12.77
2019-04-19T04:18:21.585Z,12.76
2019-04-19T04:19:01.733Z,12.77
2019-04-19T04:19:42.093Z,12.77
2019-04-19T04:20:22.454Z,12.74
2019-04-19T04:21:03.873Z,12.76
2019-04-19T04:21:46.868Z,12.74
2019-04-19T04:22:28.194Z,12.61
2019-04-19T04:23:10.399Z,12.69
2019-04-19T04:23:48.310Z,12.62
2019-04-19T04:24:32.406Z,12.58
2019-04-19T04:25:13.238Z,12.63
2019-04-19T04:25:54.164Z,12.59
2019-04-19T04:26:34.734Z,12.71
2019-04-19T04:27:14.456Z,12.66
2019-04-19T04:27:58.397Z,12.71
2019-04-19T05:06:57.630Z,13.94
2019-04-19T05:07:32.537Z,14.05
2019-04-19T05:08:19.302Z,14.13
2019-04-19T05:08:53.667Z,14.2
2019-04-19T05:09:38.740Z,14.34
2019-04-19T05:10:18.481Z,14.39
2019-04-19T05:11:02.126Z,14.44
2019-04-19T05:11:37.545Z,14.6
2019-04-19T05:12:26.823Z,14.63
2019-04-19T05:13:43.165Z,14.87
2019-04-19T05:14:20.570Z,15.01
2019-04-19T05:14:55.758Z,15.12
2019-04-19T05:15:41.472Z,15.25
2019-04-19T05:16:26.256Z,15.41
2019-04-19T05:17:18.063Z,15.38
2019-04-19T05:18:04.801Z,15.62
2019-04-19T05:18:24.704Z,15.76
2019-04-19T05:19:03.381Z,15.92
2019-04-19T05:19:49.861Z,16.06
2019-04-19T05:20:22.235Z,16.14
2019-04-19T05:20:59.522Z,16.36
2019-04-19T05:21:43.989Z,16.48
2019-04-19T05:22:21.987Z,16.63
2019-04-19T05:23:02.589Z,16.67
2019-04-19T05:23:52.587Z,16.91
2019-04-19T05:24:31.390Z,16.99
2019-04-19T05:25:18.946Z,17.09
2019-04-19T05:25:50.561Z,17.22
2019-04-19T05:26:44.501Z,17.36
2019-04-19T05:27:14.606Z,17.49
2019-04-19T05:27:50.029Z,17.57
2019-04-19T05:28:27.166Z,17.76
2019-04-19T05:29:05.948Z,17.84
2019-04-19T05:29:38.740Z,17.99
2019-04-19T05:30:13.328Z,18.19
2019-04-19T05:30:58.619Z,18.21
2019-04-19T05:31:41.023Z,18.32
2019-04-19T05:32:21.635Z,18.47
2019-04-19T05:33:03.355Z,18.57
2019-04-19T05:33:47.073Z,18.75
2019-04-19T05:34:36.021Z,18.79
2019-04-19T05:35:11.750Z,19.05
2019-04-19T05:35:56.707Z,19.07
2019-04-19T05:36:38.265Z,19.21
2019-04-19T05:37:13.784Z,19.28
2019-04-19T05:37:58.239Z,19.3
2019-04-19T05:38:42.141Z,19.34
2019-04-19T05:39:24.836Z,19.46
2019-04-19T05:39:59.347Z,19.58
2019-04-19T05:40:35.056Z,19.62
2019-04-19T05:41:10.124Z,19.65
2019-04-19T05:41:56.003Z,19.71
2019-04-19T05:42:39.709Z,19.89
2019-04-19T05:43:36.820Z,19.89
2019-04-19T05:44:44.858Z,20.12
2019-04-19T05:46:08.774Z,20.31
2019-04-19T05:46:45.724Z,20.44
2019-04-19T05:47:23.251Z,20.51
2019-04-19T05:47:54.339Z,20.58
2019-04-19T05:48:35.912Z,20.72
2019-04-19T05:49:19.251Z,20.75
2019-04-19T05:50:04.542Z,20.83
2019-04-19T05:50:44.018Z,20.96
2019-04-19T05:51:33.570Z,21
2019-04-19T05:52:07.265Z,21.13
2019-04-19T05:52:46.968Z,21.18
2019-04-19T05:53:19.491Z,21.26
2019-04-19T05:53:53.648Z,21.34
2019-04-19T05:54:30.314Z,21.27
2019-04-19T05:55:11.542Z,21.43
2019-04-19T05:55:52.169Z,21.55
2019-04-19T05:56:32.852Z,21.52
2019-04-19T05:57:30.754Z,21.61
2019-04-19T05:58:05.507Z,21.75
2019-04-19T05:58:47.963Z,21.74
2019-04-19T05:59:29.106Z,21.94
2019-04-19T06:00:03.451Z,22.05
2019-04-19T06:00:51.275Z,22.12
2019-04-19T06:01:35.957Z,22.23
2019-04-19T06:02:09.730Z,22.31
2019-04-19T06:02:52.155Z,22.49
2019-04-19T06:03:26.951Z,22.57
2019-04-19T06:04:16.689Z,22.64
2019-04-19T06:05:05.663Z,22.63
2019-04-19T06:05:42.106Z,22.79
2019-04-19T06:06:25.783Z,22.93
2019-04-19T06:07:34.242Z,23.09
2019-04-19T06:08:10.314Z,23.12
2019-04-19T06:08:42.782Z,23.22
2019-04-19T06:09:22.331Z,23.31
2019-04-19T06:10:06.385Z,23.38
2019-04-19T06:10:48.246Z,23.44
2019-04-19T06:11:29.543Z,23.53
2019-04-19T06:12:12.294Z,23.54
2019-04-19T06:12:45.243Z,23.44
2019-04-19T06:13:25.531Z,23.49
2019-04-19T06:14:23.223Z,23.57
2019-04-19T06:15:07.895Z,23.56
2019-04-19T06:15:48.295Z,23.62
2019-04-19T06:16:25.208Z,23.78
2019-04-19T06:17:01.369Z,23.74
2019-04-19T06:17:43.047Z,23.87
2019-04-19T06:18:21.403Z,24
2019-04-19T06:18:58.154Z,23.96
2019-04-19T06:19:44.289Z,24
2019-04-19T06:20:25.852Z,24.08
2019-04-19T06:21:10.001Z,24.08
2019-04-19T06:21:45.898Z,24.14
2019-04-19T06:22:26.692Z,24.26
2019-04-19T06:23:06.969Z,24.26
2019-04-19T06:23:53.429Z,24.26
2019-04-19T06:24:31.332Z,24.27
2019-04-19T06:25:05.891Z,24.42
2019-04-19T06:25:58.286Z,24.48
2019-04-19T06:27:17.561Z,24.49
2019-04-19T06:28:08.758Z,24.46
2019-04-19T06:28:34.242Z,24.45
2019-04-19T06:29:14.484Z,24.49
2019-04-19T06:29:58.468Z,24.56
2019-04-19T06:30:36.028Z,24.63
2019-04-19T06:31:21.484Z,24.7
2019-04-19T06:32:14.994Z,24.74
2019-04-19T06:32:38.555Z,24.82
2019-04-19T06:33:16.824Z,24.7
2019-04-19T06:33:57.480Z,24.74
2019-04-19T06:34:35.966Z,24.79
2019-04-19T06:35:13.787Z,24.7
2019-04-19T06:35:48.438Z,24.53
2019-04-19T06:36:20.927Z,24.39
2019-04-19T06:37:08.007Z,24.46
2019-04-19T06:37:41.952Z,24.48
2019-04-19T06:38:22.356Z,24.52
2019-04-19T06:39:01.636Z,24.53
2019-04-19T06:39:42.019Z,24.39
2019-04-19T06:40:27.646Z,24.37
2019-04-19T06:41:09.047Z,24.48
2019-04-19T06:41:49.080Z,24.52
2019-04-19T06:42:34.350Z,24.49
2019-04-19T06:43:11.284Z,24.48
2019-04-19T06:43:55.235Z,24.42
2019-04-19T06:44:44.531Z,24.48
2019-04-19T06:45:22.569Z,24.44
2019-04-19T06:46:02.086Z,24.26
2019-04-19T06:46:38.038Z,24.29
2019-04-19T06:47:16.170Z,24.46
2019-04-19T06:47:54.610Z,24.64
2019-04-19T06:48:32.021Z,24.61
2019-04-19T06:49:15.092Z,24.68
2019-04-19T06:49:51.228Z,24.82
2019-04-19T06:50:34.098Z,24.86
2019-04-19T06:51:17.268Z,24.9
2019-04-19T06:51:57.384Z,24.86
2019-04-19T06:52:33.313Z,24.87
2019-04-19T06:53:10.654Z,24.87
2019-04-19T06:53:57.022Z,24.82
2019-04-19T06:54:36.717Z,24.82
2019-04-19T06:55:20.802Z,24.83
2019-04-19T06:55:55.324Z,24.89
2019-04-19T06:56:36.913Z,24.99
2019-04-19T06:57:21.493Z,24.94
2019-04-19T06:58:03.346Z,25.04
2019-04-19T06:58:44.299Z,25.05
2019-04-19T06:59:22.951Z,24.98
2019-04-19T07:00:09.312Z,24.87
2019-04-19T07:00:48.754Z,24.84
2019-04-19T07:01:26.825Z,24.7
2019-04-19T07:01:58.789Z,24.59
2019-04-19T07:02:37.068Z,24.55
2019-04-19T07:03:17.751Z,24.41
2019-04-19T07:03:57.924Z,24.27
2019-04-19T07:04:48.173Z,24.04
2019-04-19T07:05:33.418Z,23.54
2019-04-19T07:06:13.882Z,23.12
2019-04-19T07:06:51.130Z,22.91
2019-04-19T07:07:33.039Z,22.64
2019-04-19T07:08:42.548Z,22.42
2019-04-19T07:09:07.193Z,22.3
2019-04-19T07:09:44.287Z,22.08
2019-04-19T07:10:31.809Z,21.89
2019-04-19T07:11:05.961Z,21.58
2019-04-19T07:11:45.890Z,21.42
2019-04-19T07:12:23.483Z,21.08
2019-04-19T07:13:00.504Z,20.9
2019-04-19T07:13:35.583Z,20.68
2019-04-19T07:14:11.859Z,20.63
2019-04-19T07:14:58.639Z,20.19
2019-04-19T07:15:49.583Z,20.04
2019-04-19T07:16:29.873Z,19.92
2019-04-19T07:17:05.410Z,19.97
2019-04-19T07:17:41.782Z,20.1
2019-04-19T07:18:24.493Z,20.37
2019-04-19T07:19:00.122Z,20.53
2019-04-19T07:19:43.644Z,20.64
2019-04-19T07:20:23.822Z,20.72
2019-04-19T07:21:11.473Z,20.88
2019-04-19T07:21:46.704Z,20.97
2019-04-19T07:22:21.370Z,20.88
2019-04-19T07:23:02.192Z,21.05
2019-04-19T07:23:48.658Z,21.13
2019-04-19T07:24:33.229Z,21.26
2019-04-19T07:25:18.148Z,21.22
2019-04-19T07:25:53.834Z,21.12
2019-04-19T07:26:33.124Z,21.12
2019-04-19T07:27:10.661Z,20.97
2019-04-19T07:27:43.882Z,20.93
2019-04-19T07:28:20.045Z,20.9
2019-04-19T07:28:53.766Z,20.85
2019-04-19T07:29:34.171Z,20.82
2019-04-19T07:30:15.769Z,20.73
2019-04-19T07:30:59.555Z,20.71
2019-04-19T07:31:36.981Z,20.64
2019-04-19T07:32:17.477Z,20.83
2019-04-19T07:33:02.156Z,21.01
2019-04-19T07:33:45.096Z,21.19
2019-04-19T07:34:34.132Z,21.33
2019-04-19T07:35:08.651Z,21.42
2019-04-19T07:36:00.357Z,21.45
2019-04-19T07:36:34.710Z,21.51
2019-04-19T07:37:12.889Z,21.67
2019-04-19T07:37:56.257Z,21.59
2019-04-19T07:38:38.777Z,21.53
2019-04-19T07:39:20.212Z,21.55
2019-04-19T07:40:23.150Z,21.34
2019-04-19T07:40:42.341Z,21.37
2019-04-19T07:41:16.023Z,21.24
2019-04-19T07:42:03.211Z,21.26
2019-04-19T07:42:38.641Z,21.3
2019-04-19T07:43:16.629Z,21.28
2019-04-19T07:43:54.295Z,21.38
2019-04-19T07:44:31.541Z,21.27
2019-04-19T07:45:07.350Z,21.34
2019-04-19T07:46:02.292Z,21.3
2019-04-19T07:46:44.086Z,21.24
2019-04-19T07:47:17.342Z,21.21
2019-04-19T07:47:53.169Z,21.01
2019-04-19T07:48:27.239Z,20.85
2019-04-19T07:49:06.259Z,20.63
2019-04-19T07:49:57.202Z,20.6
2019-04-19T07:50:39.220Z,20.6
2019-04-19T07:51:14.561Z,20.68
2019-04-19T07:51:56.966Z,20.75
2019-04-19T07:52:37.716Z,20.79
2019-04-19T07:53:10.062Z,20.83
2019-04-19T07:53:52.529Z,20.87
2019-04-19T07:54:33.589Z,20.66
2019-04-19T07:55:13.373Z,20.66
2019-04-19T07:56:00.166Z,20.78
2019-04-19T07:56:43.933Z,20.81
2019-04-19T07:58:29.871Z,20.96
2019-04-19T07:58:55.164Z,21
2019-04-19T07:59:38.371Z,20.98
2019-04-19T08:00:18.269Z,21.05
2019-04-19T08:00:55.816Z,21.12
2019-04-19T08:01:52.338Z,20.98
2019-04-19T08:02:44.922Z,21.11
2019-04-19T08:03:05.160Z,21.19
2019-04-19T08:03:57.193Z,21.19
2019-04-19T08:05:46.110Z,21.36
2019-04-19T08:06:27.377Z,21.49
2019-04-19T08:07:06.403Z,21.58
2019-04-19T08:08:32.086Z,21.55
2019-04-19T08:09:10.753Z,21.64
2019-04-19T08:09:48.131Z,21.48
2019-04-19T08:10:25.413Z,21.38
2019-04-19T08:11:57.442Z,20.97
2019-04-19T08:12:23.652Z,20.73
2019-04-19T08:13:12.688Z,20.66
2019-04-19T08:14:00.815Z,20.66
2019-04-19T08:14:39.618Z,20.61
2019-04-19T08:15:11.463Z,20.69
2019-04-19T08:15:54.521Z,20.69
2019-04-19T08:16:32.683Z,20.78
2019-04-19T08:17:58.500Z,20.85
2019-04-19T08:19:14.708Z,20.88
2019-04-19T08:27:41.137Z,21.51
2019-04-19T08:28:23.284Z,21.42
2019-04-19T08:29:06.155Z,21.34
2019-04-19T08:29:43.649Z,21.26
2019-04-19T08:30:19.103Z,21.12
2019-04-19T08:30:58.946Z,20.93
2019-04-19T08:31:35.956Z,20.88
2019-04-19T08:32:17.318Z,20.96
2019-04-19T08:32:57.523Z,21.09
2019-04-19T08:33:38.752Z,21.05
2019-04-19T08:34:23.669Z,21.05
2019-04-19T08:35:02.744Z,21.06
2019-04-19T08:35:45.277Z,21.18
2019-04-19T08:36:25.237Z,21.13
2019-04-19T08:37:03.548Z,21.19
2019-04-19T08:37:42.830Z,21.34
2019-04-19T08:38:25.541Z,21.34
2019-04-19T08:39:16.607Z,21.38
2019-04-19T08:39:53.718Z,21.36
2019-04-19T08:40:37.209Z,21.42
2019-04-19T08:41:13.459Z,21.42
2019-04-19T08:42:06.574Z,21.51
2019-04-19T08:42:38.391Z,21.38
2019-04-19T08:43:20.863Z,21.37
2019-04-19T08:43:59.009Z,21.42
2019-04-19T08:44:37.394Z,21.48
2019-04-19T08:45:11.142Z,21.64
2019-04-19T08:45:46.646Z,21.71
2019-04-19T08:46:26.655Z,21.75
2019-04-19T08:47:17.369Z,21.94
2019-04-19T08:47:59.114Z,22.02
2019-04-19T08:48:37.279Z,22.24
2019-04-19T08:49:11.823Z,22.21
2019-04-19T08:49:50.201Z,22.35
2019-04-19T08:50:29.249Z,22.56
2019-04-19T08:51:10.052Z,22.64
2019-04-19T08:51:50.599Z,22.67
2019-04-19T08:52:35.415Z,22.64
2019-04-19T08:53:26.464Z,22.6
2019-04-19T08:54:09.023Z,22.51
2019-04-19T08:54:52.022Z,22.45
2019-04-19T08:56:07.848Z,22.51
2019-04-19T08:56:44.791Z,22.54
2019-04-19T08:57:19.508Z,22.57
2019-04-19T08:58:01.583Z,22.54
2019-04-19T08:58:54.224Z,22.64
2019-04-19T08:59:38.316Z,22.67
2019-04-19T09:00:22.808Z,22.51
2019-04-19T09:01:08.587Z,22.38
2019-04-19T09:01:40.064Z,22.15
2019-04-19T09:02:15.219Z,22.17
2019-04-19T09:02:53.680Z,21.94
2019-04-19T09:03:45.041Z,21.86
2019-04-19T09:04:17.972Z,22.09
2019-04-19T09:04:58.881Z,22.2
2019-04-19T09:05:34.186Z,22.27
2019-04-19T09:07:46.788Z,22.29
2019-04-19T09:08:22.616Z,22.36
2019-04-19T09:08:56.404Z,22.52
2019-04-19T09:09:40.517Z,22.6
2019-04-19T09:11:01.218Z,22.49
2019-04-19T09:11:38.689Z,22.39
2019-04-19T09:12:20.724Z,22.56
2019-04-19T09:13:11.993Z,22.46
2019-04-19T09:13:41.647Z,22.45
2019-04-19T09:14:30.176Z,22.51
2019-04-19T09:15:06.157Z,22.63
2019-04-19T09:15:42.916Z,22.97
2019-04-19T09:16:24.206Z,22.93
2019-04-19T09:17:12.619Z,22.99
2019-04-19T09:18:12.599Z,22.93
2019-04-19T09:18:38.705Z,22.82
2019-04-19T09:19:14.425Z,22.76
2019-04-19T09:20:14.830Z,22.91
2019-04-19T09:20:27.847Z,22.88
2019-04-19T09:21:09.616Z,22.99
2019-04-19T09:21:44.511Z,23.09
2019-04-19T09:22:28.899Z,23.21
2019-04-19T09:23:08.963Z,23.18
2019-04-19T09:23:46.877Z,23.25
2019-04-19T09:24:28.191Z,23.21
2019-04-19T09:25:05.156Z,23.37
2019-04-19T09:25:46.211Z,23.54
2019-04-19T09:26:35.073Z,23.64
2019-04-19T09:27:17.757Z,23.75
2019-04-19T09:27:58.197Z,23.68
2019-04-19T09:29:23.820Z,23.78
2019-04-19T09:29:58.310Z,23.69
2019-04-19T09:30:36.610Z,23.68
2019-04-19T09:31:16.709Z,23.67
2019-04-19T09:31:51.551Z,23.71
2019-04-19T09:32:26.666Z,23.57
2019-04-19T09:33:09.527Z,23.59
2019-04-19T09:33:44.132Z,23.59
2019-04-19T09:34:25.135Z,23.67
2019-04-19T09:35:06.949Z,23.79
2019-04-19T09:35:53.031Z,23.84
2019-04-19T09:36:30.302Z,23.54
2019-04-19T09:37:12.790Z,23.56
2019-04-19T09:37:55.330Z,23.45
2019-04-19T09:38:39.012Z,23.68
2019-04-19T09:39:21.796Z,23.71
2019-04-19T09:39:56.260Z,23.81
2019-04-19T09:40:35.178Z,23.77
2019-04-19T09:41:19.076Z,23.68
2019-04-19T09:41:54.602Z,23.75
2019-04-19T09:42:38.617Z,23.82
2019-04-19T09:43:23.517Z,24.06
2019-04-19T09:44:01.443Z,24.08
2019-04-19T09:44:38.182Z,24.15
2019-04-19T09:45:10.475Z,24.27
2019-04-19T09:45:51.107Z,24.37
2019-04-19T09:46:31.815Z,24.31
2019-04-19T09:47:12.127Z,24.21
2019-04-19T09:47:52.442Z,23.96
2019-04-19T09:48:51.133Z,24.02